sensor_id;sensor_type;location;lat;lon;timestamp;pressure;altitude;pressure_sealevel;temperature;humidity
42105;BME280;70664;51.472;5.712;2023-09-07T00:00:23;101775.72;;;22.42;73.17
42105;BME280;70664;51.472;5.712;2023-09-07T00:02:49;101774.84;;;22.42;72.70
42105;BME280;70664;51.472;5.712;2023-09-07T00:05:14;101775.72;;;22.42;73.01
42105;BME280;70664;51.472;5.712;2023-09-07T00:07:40;101780.09;;;22.42;72.91
42105;BME280;70664;51.472;5.712;2023-09-07T00:10:06;101774.00;;;22.41;72.76
42105;BME280;70664;51.472;5.712;2023-09-07T00:12:33;101774.00;;;22.41;72.82
42105;BME280;70664;51.472;5.712;2023-09-07T00:14:59;101774.91;;;22.40;73.07
42105;BME280;70664;51.472;5.712;2023-09-07T00:17:25;101776.66;;;22.40;72.94
42105;BME280;70664;51.472;5.712;2023-09-07T00:19:51;101775.81;;;22.39;72.89
42105;BME280;70664;51.472;5.712;2023-09-07T00:22:18;101774.94;;;22.39;73.02
42105;BME280;70664;51.472;5.712;2023-09-07T00:24:44;101776.66;;;22.40;73.09
42105;BME280;70664;51.472;5.712;2023-09-07T00:27:10;101773.19;;;22.39;72.79
42105;BME280;70664;51.472;5.712;2023-09-07T00:29:38;101767.16;;;22.37;72.99
42105;BME280;70664;51.472;5.712;2023-09-07T00:32:05;101773.22;;;22.38;72.81
42105;BME280;70664;51.472;5.712;2023-09-07T00:34:31;101773.28;;;22.36;72.61
42105;BME280;70664;51.472;5.712;2023-09-07T00:36:57;101773.28;;;22.36;72.77
42105;BME280;70664;51.472;5.712;2023-09-07T00:39:23;101764.56;;;22.36;72.84
42105;BME280;70664;51.472;5.712;2023-09-07T00:41:49;101762.81;;;22.36;72.68
42105;BME280;70664;51.472;5.712;2023-09-07T00:44:15;101756.69;;;22.36;73.06
42105;BME280;70664;51.472;5.712;2023-09-07T00:46:41;101759.38;;;22.34;72.90
42105;BME280;70664;51.472;5.712;2023-09-07T00:49:11;101757.59;;;22.35;73.03
42105;BME280;70664;51.472;5.712;2023-09-07T00:51:37;101761.13;;;22.34;72.72
42105;BME280;70664;51.472;5.712;2023-09-07T00:54:03;101755.88;;;22.34;72.70
42105;BME280;70664;51.472;5.712;2023-09-07T00:56:29;101757.66;;;22.33;72.98
42105;BME280;70664;51.472;5.712;2023-09-07T00:58:56;101753.34;;;22.32;72.72
42105;BME280;70664;51.472;5.712;2023-09-07T01:01:25;101755.94;;;22.32;72.93
42105;BME280;70664;51.472;5.712;2023-09-07T01:03:51;101748.94;;;22.33;72.62
42105;BME280;70664;51.472;5.712;2023-09-07T01:06:25;101758.56;;;22.32;72.53
42105;BME280;70664;51.472;5.712;2023-09-07T01:08:56;101755.06;;;22.32;72.57
42105;BME280;70664;51.472;5.712;2023-09-07T01:11:23;101759.41;;;22.33;72.60
42105;BME280;70664;51.472;5.712;2023-09-07T01:13:50;101759.47;;;22.31;72.75
42105;BME280;70664;51.472;5.712;2023-09-07T01:16:18;101759.47;;;22.31;72.46
42105;BME280;70664;51.472;5.712;2023-09-07T01:18:45;101761.22;;;22.30;72.88
42105;BME280;70664;51.472;5.712;2023-09-07T01:21:11;101761.22;;;22.30;72.90
42105;BME280;70664;51.472;5.712;2023-09-07T01:23:41;101758.59;;;22.30;72.40
42105;BME280;70664;51.472;5.712;2023-09-07T01:26:09;101754.31;;;22.29;72.61
42105;BME280;70664;51.472;5.712;2023-09-07T01:28:35;101757.75;;;22.30;72.65
42105;BME280;70664;51.472;5.712;2023-09-07T01:31:02;101758.66;;;22.29;72.49
42105;BME280;70664;51.472;5.712;2023-09-07T01:33:28;101758.66;;;22.29;72.84
42105;BME280;70664;51.472;5.712;2023-09-07T01:35:54;101756.94;;;22.28;72.44
42105;BME280;70664;51.472;5.712;2023-09-07T01:38:20;101757.81;;;22.28;72.90
42105;BME280;70664;51.472;5.712;2023-09-07T01:40:46;101757.81;;;22.28;72.70
42105;BME280;70664;51.472;5.712;2023-09-07T01:43:12;101748.19;;;22.29;72.64
42105;BME280;70664;51.472;5.712;2023-09-07T01:45:38;101746.47;;;22.28;72.57
42105;BME280;70664;51.472;5.712;2023-09-07T01:48:12;101748.25;;;22.27;72.28
42105;BME280;70664;51.472;5.712;2023-09-07T01:50:38;101750.00;;;22.27;72.56
42105;BME280;70664;51.472;5.712;2023-09-07T01:53:03;101743.84;;;22.28;72.23
42105;BME280;70664;51.472;5.712;2023-09-07T01:55:31;101744.75;;;22.27;72.26
42105;BME280;70664;51.472;5.712;2023-09-07T01:57:57;101741.28;;;22.26;72.37
42105;BME280;70664;51.472;5.712;2023-09-07T02:00:23;101740.41;;;22.26;72.73
42105;BME280;70664;51.472;5.712;2023-09-07T02:02:49;101748.28;;;22.26;72.61
42105;BME280;70664;51.472;5.712;2023-09-07T02:05:14;101744.81;;;22.25;72.29
42105;BME280;70664;51.472;5.712;2023-09-07T02:07:40;101741.31;;;22.25;72.56
42105;BME280;70664;51.472;5.712;2023-09-07T02:10:07;101734.38;;;22.24;72.17
42105;BME280;70664;51.472;5.712;2023-09-07T02:12:33;101735.28;;;22.23;72.20
42105;BME280;70664;51.472;5.712;2023-09-07T02:15:02;101742.22;;;22.24;72.48
42105;BME280;70664;51.472;5.712;2023-09-07T02:17:29;101742.22;;;22.24;72.09
42105;BME280;70664;51.472;5.712;2023-09-07T02:19:55;101744.00;;;22.23;72.56
42105;BME280;70664;51.472;5.712;2023-09-07T02:22:21;101741.38;;;22.23;72.58
42105;BME280;70664;51.472;5.712;2023-09-07T02:24:47;101744.84;;;22.24;72.61
42105;BME280;70664;51.472;5.712;2023-09-07T02:27:13;101744.03;;;22.22;72.42
42105;BME280;70664;51.472;5.712;2023-09-07T02:29:38;101744.91;;;22.22;72.50
42105;BME280;70664;51.472;5.712;2023-09-07T02:32:05;101738.81;;;22.22;72.29
42105;BME280;70664;51.472;5.712;2023-09-07T02:34:31;101730.09;;;22.21;72.33
42105;BME280;70664;51.472;5.712;2023-09-07T02:36:57;101734.47;;;22.21;72.34
42105;BME280;70664;51.472;5.712;2023-09-07T02:39:23;101736.25;;;22.20;72.51
42105;BME280;70664;51.472;5.712;2023-09-07T02:41:52;101736.25;;;22.20;72.31
42105;BME280;70664;51.472;5.712;2023-09-07T02:44:18;101727.50;;;22.20;72.10
42105;BME280;70664;51.472;5.712;2023-09-07T02:46:44;101735.38;;;22.20;72.13
42105;BME280;70664;51.472;5.712;2023-09-07T02:49:09;101739.75;;;22.19;72.27
42105;BME280;70664;51.472;5.712;2023-09-07T02:51:35;101738.91;;;22.19;72.44
42105;BME280;70664;51.472;5.712;2023-09-07T02:54:02;101731.09;;;22.17;72.25
42105;BME280;70664;51.472;5.712;2023-09-07T02:58:54;101739.84;;;22.16;72.22
42105;BME280;70664;51.472;5.712;2023-09-07T03:01:20;101737.25;;;22.16;72.16
42105;BME280;70664;51.472;5.712;2023-09-07T03:03:46;101739.03;;;22.15;72.24
42105;BME280;70664;51.472;5.712;2023-09-07T03:06:14;101739.84;;;22.16;72.27
42105;BME280;70664;51.472;5.712;2023-09-07T03:08:40;101732.06;;;22.14;72.23
42105;BME280;70664;51.472;5.712;2023-09-07T03:11:07;101732.06;;;22.14;72.29
42105;BME280;70664;51.472;5.712;2023-09-07T03:13:34;101734.63;;;22.16;72.36
42105;BME280;70664;51.472;5.712;2023-09-07T03:16:02;101730.28;;;22.15;72.12
42105;BME280;70664;51.472;5.712;2023-09-07T03:18:28;101733.81;;;22.14;71.90
42105;BME280;70664;51.472;5.712;2023-09-07T03:20:56;101725.94;;;22.14;72.10
42105;BME280;70664;51.472;5.712;2023-09-07T03:23:23;101738.19;;;22.13;72.02
42105;BME280;70664;51.472;5.712;2023-09-07T03:25:49;101735.59;;;22.13;72.22
42105;BME280;70664;51.472;5.712;2023-09-07T03:28:15;101734.72;;;22.13;72.00
42105;BME280;70664;51.472;5.712;2023-09-07T03:30:41;101740.84;;;22.12;72.08
42105;BME280;70664;51.472;5.712;2023-09-07T03:33:07;101739.94;;;22.13;72.11
42105;BME280;70664;51.472;5.712;2023-09-07T03:35:33;101740.00;;;22.11;72.34
42105;BME280;70664;51.472;5.712;2023-09-07T03:37:59;101742.63;;;22.11;72.12
42105;BME280;70664;51.472;5.712;2023-09-07T03:40:25;101732.19;;;22.10;71.86
42105;BME280;70664;51.472;5.712;2023-09-07T03:42:50;101733.06;;;22.10;72.13
42105;BME280;70664;51.472;5.712;2023-09-07T03:45:16;101735.69;;;22.10;72.38
42105;BME280;70664;51.472;5.712;2023-09-07T03:47:43;101732.19;;;22.10;72.13
42105;BME280;70664;51.472;5.712;2023-09-07T03:50:09;101731.34;;;22.09;72.30
42105;BME280;70664;51.472;5.712;2023-09-07T03:52:36;101727.84;;;22.09;72.09
42105;BME280;70664;51.472;5.712;2023-09-07T03:55:02;101737.47;;;22.08;72.11
42105;BME280;70664;51.472;5.712;2023-09-07T03:57:29;101734.88;;;22.08;72.13
42105;BME280;70664;51.472;5.712;2023-09-07T03:59:56;101736.59;;;22.09;72.27
42105;BME280;70664;51.472;5.712;2023-09-07T04:02:23;101734.88;;;22.08;71.97
42105;BME280;70664;51.472;5.712;2023-09-07T04:04:55;101735.78;;;22.07;72.31
42105;BME280;70664;51.472;5.712;2023-09-07T04:07:21;101738.38;;;22.07;71.92
42105;BME280;70664;51.472;5.712;2023-09-07T04:09:47;101739.28;;;22.06;71.78
42105;BME280;70664;51.472;5.712;2023-09-07T04:12:13;101744.47;;;22.08;71.84
42105;BME280;70664;51.472;5.712;2023-09-07T04:14:39;101739.28;;;22.06;72.03
42105;BME280;70664;51.472;5.712;2023-09-07T04:17:05;101740.13;;;22.07;72.11
42105;BME280;70664;51.472;5.712;2023-09-07T04:19:31;101738.41;;;22.06;71.93
42105;BME280;70664;51.472;5.712;2023-09-07T04:21:57;101738.41;;;22.06;71.72
42105;BME280;70664;51.472;5.712;2023-09-07T04:24:23;101731.44;;;22.06;71.68
42105;BME280;70664;51.472;5.712;2023-09-07T04:26:49;101730.56;;;22.06;72.08
42105;BME280;70664;51.472;5.712;2023-09-07T04:29:16;101732.34;;;22.05;71.64
42105;BME280;70664;51.472;5.712;2023-09-07T04:31:42;101741.91;;;22.06;71.75
42105;BME280;70664;51.472;5.712;2023-09-07T04:34:07;101731.47;;;22.05;71.63
42105;BME280;70664;51.472;5.712;2023-09-07T04:36:33;101733.25;;;22.04;71.97
42105;BME280;70664;51.472;5.712;2023-09-07T04:38:59;101734.09;;;22.05;71.71
42105;BME280;70664;51.472;5.712;2023-09-07T04:41:25;101733.25;;;22.04;71.72
42105;BME280;70664;51.472;5.712;2023-09-07T04:43:51;101728.03;;;22.03;71.94
42105;BME280;70664;51.472;5.712;2023-09-07T04:46:17;101734.16;;;22.03;71.88
42105;BME280;70664;51.472;5.712;2023-09-07T04:48:46;101741.13;;;22.03;71.67
42105;BME280;70664;51.472;5.712;2023-09-07T04:51:12;101738.50;;;22.03;71.50
42105;BME280;70664;51.472;5.712;2023-09-07T04:53:39;101744.63;;;22.03;71.86
42105;BME280;70664;51.472;5.712;2023-09-07T04:56:06;101742.91;;;22.02;71.49
42105;BME280;70664;51.472;5.712;2023-09-07T04:58:34;101744.63;;;22.03;71.47
42105;BME280;70664;51.472;5.712;2023-09-07T05:01:08;101744.63;;;22.03;71.60
42105;BME280;70664;51.472;5.712;2023-09-07T05:03:35;101739.44;;;22.02;71.84
42105;BME280;70664;51.472;5.712;2023-09-07T05:06:02;101742.06;;;22.02;71.46
42105;BME280;70664;51.472;5.712;2023-09-07T05:08:28;101739.47;;;22.00;71.62
42105;BME280;70664;51.472;5.712;2023-09-07T05:11:00;101741.19;;;22.01;71.61
42105;BME280;70664;51.472;5.712;2023-09-07T05:13:27;101742.09;;;22.00;71.50
42105;BME280;70664;51.472;5.712;2023-09-07T05:15:54;101749.94;;;22.00;71.70
42105;BME280;70664;51.472;5.712;2023-09-07T05:18:22;101755.19;;;22.00;71.69
42105;BME280;70664;51.472;5.712;2023-09-07T05:20:48;101752.56;;;22.00;71.38
42105;BME280;70664;51.472;5.712;2023-09-07T05:23:18;101749.94;;;22.00;71.84
42105;BME280;70664;51.472;5.712;2023-09-07T05:25:49;101762.19;;;21.99;71.51
42105;BME280;70664;51.472;5.712;2023-09-07T05:28:16;101756.97;;;21.99;71.54
42105;BME280;70664;51.472;5.712;2023-09-07T05:30:42;101756.06;;;22.00;71.42
42105;BME280;70664;51.472;5.712;2023-09-07T05:33:16;101767.44;;;21.99;71.48
42105;BME280;70664;51.472;5.712;2023-09-07T05:35:42;101763.00;;;22.02;71.29
42105;BME280;70664;51.472;5.712;2023-09-07T05:38:09;101772.59;;;22.01;71.38
42105;BME280;70664;51.472;5.712;2023-09-07T05:40:39;101769.31;;;21.94;67.61
42105;BME280;70664;51.472;5.712;2023-09-07T05:43:05;101772.94;;;21.90;66.65
42105;BME280;70664;51.472;5.712;2023-09-07T05:45:38;101771.28;;;21.88;66.00
42105;BME280;70664;51.472;5.712;2023-09-07T05:48:05;101767.94;;;21.82;64.95
42105;BME280;70664;51.472;5.712;2023-09-07T05:50:34;101770.63;;;21.79;64.85
42105;BME280;70664;51.472;5.712;2023-09-07T05:52:59;101779.31;;;21.80;65.33
42105;BME280;70664;51.472;5.712;2023-09-07T05:55:25;101774.06;;;21.81;65.29
42105;BME280;70664;51.472;5.712;2023-09-07T05:57:56;101775.69;;;21.85;65.45
42105;BME280;70664;51.472;5.712;2023-09-07T06:00:23;101781.75;;;21.88;65.58
42105;BME280;70664;51.472;5.712;2023-09-07T06:02:49;101782.59;;;21.88;65.36
42105;BME280;70664;51.472;5.712;2023-09-07T06:05:15;101778.19;;;21.89;65.16
42105;BME280;70664;51.472;5.712;2023-09-07T06:07:42;101787.75;;;21.91;64.89
42105;BME280;70664;51.472;5.712;2023-09-07T06:10:09;101792.06;;;21.92;65.07
42105;BME280;70664;51.472;5.712;2023-09-07T06:12:35;101792.06;;;21.92;64.54
42105;BME280;70664;51.472;5.712;2023-09-07T06:15:01;101796.44;;;21.92;65.04
42105;BME280;70664;51.472;5.712;2023-09-07T06:17:28;101790.28;;;21.93;65.15
42105;BME280;70664;51.472;5.712;2023-09-07T06:19:54;101797.25;;;21.94;65.21
42105;BME280;70664;51.472;5.712;2023-09-07T06:22:20;101793.72;;;21.96;65.45
42105;BME280;70664;51.472;5.712;2023-09-07T06:24:46;101789.22;;;22.00;66.10
42105;BME280;70664;51.472;5.712;2023-09-07T06:27:12;101794.44;;;22.02;67.22
42105;BME280;70664;51.472;5.712;2023-09-07T06:29:38;101799.53;;;22.05;67.78
42105;BME280;70664;51.472;5.712;2023-09-07T06:32:03;101809.09;;;22.07;68.25
42105;BME280;70664;51.472;5.712;2023-09-07T06:34:29;101804.69;;;22.08;68.04
42105;BME280;70664;51.472;5.712;2023-09-07T06:36:55;101803.78;;;22.09;67.96
42105;BME280;70664;51.472;5.712;2023-09-07T06:39:21;101800.34;;;22.08;67.91
42105;BME280;70664;51.472;5.712;2023-09-07T06:41:47;101802.06;;;22.09;68.25
42105;BME280;70664;51.472;5.712;2023-09-07T06:44:13;101798.53;;;22.10;68.42
42105;BME280;70664;51.472;5.712;2023-09-07T06:46:40;101813.38;;;22.10;68.47
42105;BME280;70664;51.472;5.712;2023-09-07T06:49:06;101803.78;;;22.10;68.70
42105;BME280;70664;51.472;5.712;2023-09-07T06:51:32;101807.22;;;22.11;68.67
42105;BME280;70664;51.472;5.712;2023-09-07T06:53:58;101810.66;;;22.13;68.82
42105;BME280;70664;51.472;5.712;2023-09-07T06:56:24;101809.81;;;22.12;68.58
42105;BME280;70664;51.472;5.712;2023-09-07T06:58:51;101813.28;;;22.13;68.56
42105;BME280;70664;51.472;5.712;2023-09-07T07:01:16;101818.50;;;22.14;68.81
42105;BME280;70664;51.472;5.712;2023-09-07T07:03:42;101808.91;;;22.13;68.70
42105;BME280;70664;51.472;5.712;2023-09-07T07:06:08;101817.63;;;22.14;68.69
42105;BME280;70664;51.472;5.712;2023-09-07T07:08:34;101823.66;;;22.16;68.72
42105;BME280;70664;51.472;5.712;2023-09-07T07:11:00;101819.34;;;22.15;68.86
42105;BME280;70664;51.472;5.712;2023-09-07T07:13:26;101823.66;;;22.16;68.72
42105;BME280;70664;51.472;5.712;2023-09-07T07:15:52;101825.44;;;22.15;68.93
42105;BME280;70664;51.472;5.712;2023-09-07T07:18:18;101826.28;;;22.16;68.84
42105;BME280;70664;51.472;5.712;2023-09-07T07:20:44;101832.38;;;22.17;68.75
42105;BME280;70664;51.472;5.712;2023-09-07T07:23:11;101829.75;;;22.17;69.02
42105;BME280;70664;51.472;5.712;2023-09-07T07:25:38;101821.91;;;22.17;69.19
42105;BME280;70664;51.472;5.712;2023-09-07T07:28:05;101821.06;;;22.16;69.38
42105;BME280;70664;51.472;5.712;2023-09-07T07:30:36;101821.06;;;22.16;69.03
42105;BME280;70664;51.472;5.712;2023-09-07T07:33:03;101821.91;;;22.17;69.40
42105;BME280;70664;51.472;5.712;2023-09-07T07:35:30;101821.06;;;22.16;69.07
42105;BME280;70664;51.472;5.712;2023-09-07T07:37:56;101822.78;;;22.17;69.27
42105;BME280;70664;51.472;5.712;2023-09-07T07:40:21;101821.06;;;22.16;69.13
42105;BME280;70664;51.472;5.712;2023-09-07T07:42:48;101825.38;;;22.17;69.41
42105;BME280;70664;51.472;5.712;2023-09-07T07:45:14;101821.94;;;22.15;69.04
42105;BME280;70664;51.472;5.712;2023-09-07T07:47:41;101818.44;;;22.16;69.35
42105;BME280;70664;51.472;5.712;2023-09-07T07:50:07;101822.81;;;22.15;69.39
42105;BME280;70664;51.472;5.712;2023-09-07T07:52:33;101815.81;;;22.16;69.43
42105;BME280;70664;51.472;5.712;2023-09-07T07:55:00;101818.44;;;22.16;69.77
42105;BME280;70664;51.472;5.712;2023-09-07T07:57:26;101818.44;;;22.16;69.80
42105;BME280;70664;51.472;5.712;2023-09-07T07:59:52;101813.19;;;22.16;69.70
42105;BME280;70664;51.472;5.712;2023-09-07T08:02:17;101817.53;;;22.17;69.91
42105;BME280;70664;51.472;5.712;2023-09-07T08:04:43;101821.06;;;22.16;70.01
42105;BME280;70664;51.472;5.712;2023-09-07T08:07:09;101816.72;;;22.15;70.16
42105;BME280;70664;51.472;5.712;2023-09-07T08:09:35;101820.22;;;22.15;69.72
42105;BME280;70664;51.472;5.712;2023-09-07T08:12:01;101812.34;;;22.15;69.84
42105;BME280;70664;51.472;5.712;2023-09-07T08:14:29;101815.81;;;22.16;69.75
42105;BME280;70664;51.472;5.712;2023-09-07T08:16:56;101810.56;;;22.16;69.66
42105;BME280;70664;51.472;5.712;2023-09-07T08:19:22;101810.56;;;22.16;69.84
42105;BME280;70664;51.472;5.712;2023-09-07T08:21:47;101801.00;;;22.15;69.82
42105;BME280;70664;51.472;5.712;2023-09-07T08:24:13;101801.81;;;22.17;69.94
42105;BME280;70664;51.472;5.712;2023-09-07T08:26:39;101802.72;;;22.16;69.96
42105;BME280;70664;51.472;5.712;2023-09-07T08:29:07;101803.63;;;22.15;70.28
42105;BME280;70664;51.472;5.712;2023-09-07T08:31:38;101800.09;;;22.16;70.30
42105;BME280;70664;51.472;5.712;2023-09-07T08:34:08;101796.63;;;22.15;70.10
42105;BME280;70664;51.472;5.712;2023-09-07T08:36:37;101794.03;;;22.14;70.21
42105;BME280;70664;51.472;5.712;2023-09-07T08:39:04;101796.63;;;22.15;70.21
42105;BME280;70664;51.472;5.712;2023-09-07T08:41:43;101788.78;;;22.15;70.53
42105;BME280;70664;51.472;5.712;2023-09-07T08:44:19;101792.31;;;22.14;70.29
42105;BME280;70664;51.472;5.712;2023-09-07T08:46:49;101791.41;;;22.15;70.33
42105;BME280;70664;51.472;5.712;2023-09-07T08:49:16;101793.16;;;22.15;70.51
42105;BME280;70664;51.472;5.712;2023-09-07T08:51:45;101788.78;;;22.15;70.37
42105;BME280;70664;51.472;5.712;2023-09-07T08:54:12;101783.53;;;22.15;70.36
42105;BME280;70664;51.472;5.712;2023-09-07T08:56:38;101780.03;;;22.15;70.47
42105;BME280;70664;51.472;5.712;2023-09-07T08:59:04;101780.03;;;22.15;70.85
42105;BME280;70664;51.472;5.712;2023-09-07T09:03:58;101777.34;;;22.18;70.17
42105;BME280;70664;51.472;5.712;2023-09-07T09:06:24;101779.97;;;22.17;70.23
42105;BME280;70664;51.472;5.712;2023-09-07T09:08:57;101775.69;;;22.15;69.96
42105;BME280;70664;51.472;5.712;2023-09-07T09:11:25;101772.19;;;22.15;69.34
42105;BME280;70664;51.472;5.712;2023-09-07T09:13:53;101773.97;;;22.14;69.07
42105;BME280;70664;51.472;5.712;2023-09-07T09:16:20;101773.97;;;22.14;69.33
42105;BME280;70664;51.472;5.712;2023-09-07T09:18:51;101773.97;;;22.14;69.03
42105;BME280;70664;51.472;5.712;2023-09-07T09:21:21;101767.84;;;22.14;69.04
42105;BME280;70664;51.472;5.712;2023-09-07T09:23:54;101765.22;;;22.14;69.78
42105;BME280;70664;51.472;5.712;2023-09-07T09:26:20;101766.13;;;22.13;69.66
42105;BME280;70664;51.472;5.712;2023-09-07T09:28:47;101763.50;;;22.14;69.74
42105;BME280;70664;51.472;5.712;2023-09-07T09:31:14;101767.84;;;22.14;69.76
42105;BME280;70664;51.472;5.712;2023-09-07T09:33:41;101769.56;;;22.15;69.71
42105;BME280;70664;51.472;5.712;2023-09-07T09:36:08;101756.53;;;22.13;69.76
42105;BME280;70664;51.472;5.712;2023-09-07T09:38:35;101757.38;;;22.14;69.77
42105;BME280;70664;51.472;5.712;2023-09-07T09:41:03;101758.25;;;22.14;69.82
42105;BME280;70664;51.472;5.712;2023-09-07T09:43:29;101751.25;;;22.15;69.82
42105;BME280;70664;51.472;5.712;2023-09-07T09:45:55;101754.72;;;22.15;69.48
42105;BME280;70664;51.472;5.712;2023-09-07T09:48:22;101752.13;;;22.15;69.64
42105;BME280;70664;51.472;5.712;2023-09-07T09:50:50;101750.34;;;22.16;69.53
42105;BME280;70664;51.472;5.712;2023-09-07T09:53:19;101752.00;;;22.19;69.36
42105;BME280;70664;51.472;5.712;2023-09-07T09:55:50;101751.19;;;22.17;69.65
42105;BME280;70664;51.472;5.712;2023-09-07T10:00:46;101744.13;;;22.19;69.71
42105;BME280;70664;51.472;5.712;2023-09-07T10:03:47;101746.63;;;22.23;69.61
42105;BME280;70664;51.472;5.712;2023-09-07T10:06:24;101742.28;;;22.22;69.68
42105;BME280;70664;51.472;5.712;2023-09-07T10:09:03;101736.19;;;22.22;70.40
42105;BME280;70664;51.472;5.712;2023-09-07T10:11:34;101728.38;;;22.20;70.73
42105;BME280;70664;51.472;5.712;2023-09-07T10:14:01;101724.88;;;22.20;69.99
42105;BME280;70664;51.472;5.712;2023-09-07T10:16:49;101723.16;;;22.20;70.03
42105;BME280;70664;51.472;5.712;2023-09-07T10:19:22;101731.00;;;22.20;69.86
42105;BME280;70664;51.472;5.712;2023-09-07T10:21:50;101728.38;;;22.20;70.10
42105;BME280;70664;51.472;5.712;2023-09-07T10:24:33;101724.88;;;22.20;70.03
42105;BME280;70664;51.472;5.712;2023-09-07T10:27:09;101725.75;;;22.20;70.39
42105;BME280;70664;51.472;5.712;2023-09-07T10:29:50;101727.50;;;22.20;70.24
42105;BME280;70664;51.472;5.712;2023-09-07T10:32:19;101729.22;;;22.21;70.56
42105;BME280;70664;51.472;5.712;2023-09-07T10:34:45;101724.88;;;22.21;70.56
42105;BME280;70664;51.472;5.712;2023-09-07T10:37:12;101720.53;;;22.20;70.45
42105;BME280;70664;51.472;5.712;2023-09-07T10:39:40;101720.53;;;22.20;70.76
42105;BME280;70664;51.472;5.712;2023-09-07T10:42:07;101730.94;;;22.22;70.45
42105;BME280;70664;51.472;5.712;2023-09-07T10:44:33;101721.34;;;22.22;70.43
42105;BME280;70664;51.472;5.712;2023-09-07T10:47:00;101730.03;;;22.23;70.90
42105;BME280;70664;51.472;5.712;2023-09-07T10:49:26;101725.59;;;22.25;70.63
42105;BME280;70664;51.472;5.712;2023-09-07T10:51:51;101721.19;;;22.27;70.87
42105;BME280;70664;51.472;5.712;2023-09-07T10:54:23;101714.22;;;22.26;70.95
42105;BME280;70664;51.472;5.712;2023-09-07T10:56:50;101712.47;;;22.26;71.33
42105;BME280;70664;51.472;5.712;2023-09-07T10:59:17;101715.13;;;22.25;71.26
42105;BME280;70664;51.472;5.712;2023-09-07T11:01:46;101716.91;;;22.24;71.34
42105;BME280;70664;51.472;5.712;2023-09-07T11:04:14;101709.44;;;22.39;71.13
42105;BME280;70664;51.472;5.712;2023-09-07T11:06:42;101715.38;;;22.45;70.96
42105;BME280;70664;51.472;5.712;2023-09-07T11:09:09;101705.75;;;22.46;70.79
42105;BME280;70664;51.472;5.712;2023-09-07T11:11:38;101701.34;;;22.47;70.80
42105;BME280;70664;51.472;5.712;2023-09-07T11:14:05;101700.56;;;22.44;70.98
42105;BME280;70664;51.472;5.712;2023-09-07T11:16:33;101694.31;;;22.49;70.59
42105;BME280;70664;51.472;5.712;2023-09-07T11:19:03;101690.88;;;22.47;70.58
42105;BME280;70664;51.472;5.712;2023-09-07T11:21:30;101691.75;;;22.47;70.42
42105;BME280;70664;51.472;5.712;2023-09-07T11:23:58;101689.97;;;22.48;70.71
42105;BME280;70664;51.472;5.712;2023-09-07T11:26:24;101690.84;;;22.48;70.45
42105;BME280;70664;51.472;5.712;2023-09-07T11:28:49;101690.78;;;22.50;70.38
42105;BME280;70664;51.472;5.712;2023-09-07T11:31:19;101678.59;;;22.49;70.60
42105;BME280;70664;51.472;5.712;2023-09-07T11:33:47;101684.69;;;22.49;70.76
42105;BME280;70664;51.472;5.712;2023-09-07T11:36:15;101681.97;;;22.52;70.86
42105;BME280;70664;51.472;5.712;2023-09-07T11:38:43;101685.97;;;22.63;70.02
42105;BME280;70664;51.472;5.712;2023-09-07T11:41:10;101684.34;;;22.60;70.51
42105;BME280;70664;51.472;5.712;2023-09-07T11:43:36;101684.16;;;22.65;70.25
42105;BME280;70664;51.472;5.712;2023-09-07T11:46:03;101678.19;;;22.61;70.24
42105;BME280;70664;51.472;5.712;2023-09-07T11:48:29;101675.56;;;22.61;70.75
42105;BME280;70664;51.472;5.712;2023-09-07T11:50:55;101672.97;;;22.59;70.86
42105;BME280;70664;51.472;5.712;2023-09-07T11:53:21;101670.34;;;22.59;70.95
42105;BME280;70664;51.472;5.712;2023-09-07T11:55:47;101672.13;;;22.59;71.10
42105;BME280;70664;51.472;5.712;2023-09-07T11:58:12;101679.13;;;22.58;70.92
42105;BME280;70664;51.472;5.712;2023-09-07T12:00:38;101674.81;;;22.57;70.72
42105;BME280;70664;51.472;5.712;2023-09-07T12:03:06;101671.25;;;22.58;70.92
42105;BME280;70664;51.472;5.712;2023-09-07T12:05:32;101673.88;;;22.58;71.26
42105;BME280;70664;51.472;5.712;2023-09-07T12:07:57;101675.59;;;22.59;71.08
42105;BME280;70664;51.472;5.712;2023-09-07T12:10:23;101674.75;;;22.59;71.37
42105;BME280;70664;51.472;5.712;2023-09-07T12:12:49;101665.06;;;22.61;71.12
42105;BME280;70664;51.472;5.712;2023-09-07T12:15:15;101667.69;;;22.61;71.14
42105;BME280;70664;51.472;5.712;2023-09-07T12:17:41;101666.78;;;22.62;70.82
42105;BME280;70664;51.472;5.712;2023-09-07T12:20:09;101665.72;;;22.68;70.63
42105;BME280;70664;51.472;5.712;2023-09-07T12:22:37;101664.88;;;22.67;70.37
42105;BME280;70664;51.472;5.712;2023-09-07T12:25:05;101657.00;;;22.67;70.51
42105;BME280;70664;51.472;5.712;2023-09-07T12:27:34;101657.91;;;22.66;70.94
42105;BME280;70664;51.472;5.712;2023-09-07T12:30:01;101662.25;;;22.67;70.70
42105;BME280;70664;51.472;5.712;2023-09-07T12:32:28;101655.22;;;22.68;70.83
42105;BME280;70664;51.472;5.712;2023-09-07T12:34:54;101660.47;;;22.68;71.03
42105;BME280;70664;51.472;5.712;2023-09-07T12:37:20;101656.91;;;22.70;70.61
42105;BME280;70664;51.472;5.712;2023-09-07T12:39:51;101652.44;;;22.72;70.64
42105;BME280;70664;51.472;5.712;2023-09-07T12:42:17;101647.19;;;22.72;70.98
42105;BME280;70664;51.472;5.712;2023-09-07T12:44:44;101646.34;;;22.72;71.04
42105;BME280;70664;51.472;5.712;2023-09-07T12:47:10;101648.97;;;22.72;71.16
42105;BME280;70664;51.472;5.712;2023-09-07T12:49:35;101641.94;;;22.72;70.79
42105;BME280;70664;51.472;5.712;2023-09-07T12:52:01;101644.56;;;22.72;71.30
42105;BME280;70664;51.472;5.712;2023-09-07T12:54:37;101646.34;;;22.72;71.19
42105;BME280;70664;51.472;5.712;2023-09-07T12:57:03;101640.19;;;22.73;71.06